sensor_id;sensor_type;location;lat;lon;timestamp;P1;durP1;ratioP1;P2;durP2;ratioP2
18702;SDS011;9481;48.796;9.210;2022-08-02T00:01:50;2.20;;;1.50;;
18702;SDS011;9481;48.796;9.210;2022-08-02T00:04:16;1.27;;;1.13;;
18702;SDS011;9481;48.796;9.210;2022-08-02T00:06:41;1.20;;;1.10;;
18702;SDS011;9481;48.796;9.210;2022-08-02T00:09:07;1.80;;;1.30;;
18702;SDS011;9481;48.796;9.210;2022-08-02T00:11:33;1.50;;;1.30;;
18702;SDS011;9481;48.796;9.210;2022-08-02T00:13:59;1.40;;;1.30;;
18702;SDS011;9481;48.796;9.210;2022-08-02T00:16:25;1.60;;;1.50;;
18702;SDS011;9481;48.796;9.210;2022-08-02T00:18:51;1.67;;;1.33;;
18702;SDS011;9481;48.796;9.210;2022-08-02T00:21:17;1.50;;;1.40;;
18702;SDS011;9481;48.796;9.210;2022-08-02T00:23:42;1.73;;;1.20;;
18702;SDS011;9481;48.796;9.210;2022-08-02T00:26:08;1.57;;;1.47;;
18702;SDS011;9481;48.796;9.210;2022-08-02T00:28:34;1.50;;;1.40;;
18702;SDS011;9481;48.796;9.210;2022-08-02T00:31:00;1.97;;;1.53;;
18702;SDS011;9481;48.796;9.210;2022-08-02T00:33:25;1.63;;;1.53;;
18702;SDS011;9481;48.796;9.210;2022-08-02T00:35:52;1.80;;;1.63;;
18702;SDS011;9481;48.796;9.210;2022-08-02T00:38:17;2.00;;;1.80;;
18702;SDS011;9481;48.796;9.210;2022-08-02T00:40:50;1.63;;;1.53;;
18702;SDS011;9481;48.796;9.210;2022-08-02T00:43:16;2.23;;;2.03;;
18702;SDS011;9481;48.796;9.210;2022-08-02T00:45:43;1.83;;;1.50;;
18702;SDS011;9481;48.796;9.210;2022-08-02T00:48:09;3.27;;;1.60;;
18702;SDS011;9481;48.796;9.210;2022-08-02T00:50:37;3.23;;;1.80;;
18702;SDS011;9481;48.796;9.210;2022-08-02T00:53:05;2.07;;;1.70;;
18702;SDS011;9481;48.796;9.210;2022-08-02T00:55:36;2.57;;;1.63;;
18702;SDS011;9481;48.796;9.210;2022-08-02T00:58:03;2.00;;;1.27;;
18702;SDS011;9481;48.796;9.210;2022-08-02T01:00:29;2.47;;;1.83;;
18702;SDS011;9481;48.796;9.210;2022-08-02T01:02:55;1.90;;;1.50;;
18702;SDS011;9481;48.796;9.210;2022-08-02T01:05:20;2.60;;;1.70;;
18702;SDS011;9481;48.796;9.210;2022-08-02T01:07:46;3.63;;;1.83;;
18702;SDS011;9481;48.796;9.210;2022-08-02T01:10:12;1.80;;;1.70;;
18702;SDS011;9481;48.796;9.210;2022-08-02T01:12:37;1.53;;;1.43;;
18702;SDS011;9481;48.796;9.210;2022-08-02T01:15:04;2.07;;;1.60;;
18702;SDS011;9481;48.796;9.210;2022-08-02T01:29:16;1.47;;;1.37;;
18702;SDS011;9481;48.796;9.210;2022-08-02T01:34:33;1.73;;;1.43;;
18702;SDS011;9481;48.796;9.210;2022-08-02T01:39:54;1.60;;;1.40;;
18702;SDS011;9481;48.796;9.210;2022-08-02T01:42:29;1.40;;;1.30;;
18702;SDS011;9481;48.796;9.210;2022-08-02T01:44:56;1.80;;;1.30;;
18702;SDS011;9481;48.796;9.210;2022-08-02T01:47:27;3.00;;;1.27;;
18702;SDS011;9481;48.796;9.210;2022-08-02T01:49:59;4.40;;;1.50;;
18702;SDS011;9481;48.796;9.210;2022-08-02T01:52:28;1.43;;;1.33;;
18702;SDS011;9481;48.796;9.210;2022-08-02T01:57:51;1.83;;;1.43;;
18702;SDS011;9481;48.796;9.210;2022-08-02T02:00:22;1.70;;;1.60;;
18702;SDS011;9481;48.796;9.210;2022-08-02T02:02:52;2.10;;;1.30;;
18702;SDS011;9481;48.796;9.210;2022-08-02T02:05:21;2.30;;;1.50;;
18702;SDS011;9481;48.796;9.210;2022-08-02T02:07:52;1.50;;;1.40;;
18702;SDS011;9481;48.796;9.210;2022-08-02T02:10:26;1.20;;;1.10;;
18702;SDS011;9481;48.796;9.210;2022-08-02T02:12:55;1.30;;;1.20;;
18702;SDS011;9481;48.796;9.210;2022-08-02T02:15:28;1.33;;;1.23;;
18702;SDS011;9481;48.796;9.210;2022-08-02T02:17:56;1.50;;;1.30;;
18702;SDS011;9481;48.796;9.210;2022-08-02T02:20:24;1.27;;;1.17;;
18702;SDS011;9481;48.796;9.210;2022-08-02T02:22:50;1.50;;;1.40;;
18702;SDS011;9481;48.796;9.210;2022-08-02T02:25:19;3.33;;;1.50;;
18702;SDS011;9481;48.796;9.210;2022-08-02T02:27:49;3.90;;;1.50;;
18702;SDS011;9481;48.796;9.210;2022-08-02T02:30:23;1.63;;;1.50;;
18702;SDS011;9481;48.796;9.210;2022-08-02T02:32:54;1.33;;;1.20;;
18702;SDS011;9481;48.796;9.210;2022-08-02T02:35:26;1.20;;;1.13;;
18702;SDS011;9481;48.796;9.210;2022-08-02T02:37:56;1.90;;;1.60;;
18702;SDS011;9481;48.796;9.210;2022-08-02T02:40:27;2.27;;;1.47;;
18702;SDS011;9481;48.796;9.210;2022-08-02T02:42:53;1.57;;;1.47;;
18702;SDS011;9481;48.796;9.210;2022-08-02T02:45:23;2.03;;;1.30;;
18702;SDS011;9481;48.796;9.210;2022-08-02T02:47:50;1.83;;;1.40;;
18702;SDS011;9481;48.796;9.210;2022-08-02T02:50:19;1.57;;;1.43;;
18702;SDS011;9481;48.796;9.210;2022-08-02T02:52:46;1.23;;;1.13;;
18702;SDS011;9481;48.796;9.210;2022-08-02T02:55:13;1.60;;;1.50;;
18702;SDS011;9481;48.796;9.210;2022-08-02T02:57:41;2.10;;;1.17;;
18702;SDS011;9481;48.796;9.210;2022-08-02T03:00:11;3.40;;;1.53;;
18702;SDS011;9481;48.796;9.210;2022-08-02T03:02:39;1.83;;;1.40;;
18702;SDS011;9481;48.796;9.210;2022-08-02T03:05:08;1.70;;;1.60;;
18702;SDS011;9481;48.796;9.210;2022-08-02T03:07:35;1.40;;;1.30;;
18702;SDS011;9481;48.796;9.210;2022-08-02T03:10:03;1.60;;;1.50;;
18702;SDS011;9481;48.796;9.210;2022-08-02T03:12:31;1.60;;;1.50;;
18702;SDS011;9481;48.796;9.210;2022-08-02T03:15:00;1.90;;;1.60;;
18702;SDS011;9481;48.796;9.210;2022-08-02T03:17:42;1.47;;;1.33;;
18702;SDS011;9481;48.796;9.210;2022-08-02T03:20:11;1.60;;;1.30;;
18702;SDS011;9481;48.796;9.210;2022-08-02T03:22:44;2.87;;;1.93;;
18702;SDS011;9481;48.796;9.210;2022-08-02T03:25:11;1.50;;;1.40;;
18702;SDS011;9481;48.796;9.210;2022-08-02T03:27:39;1.60;;;1.50;;
18702;SDS011;9481;48.796;9.210;2022-08-02T03:30:06;2.03;;;1.40;;
18702;SDS011;9481;48.796;9.210;2022-08-02T03:32:35;1.70;;;1.60;;
18702;SDS011;9481;48.796;9.210;2022-08-02T03:35:04;2.40;;;1.37;;
18702;SDS011;9481;48.796;9.210;2022-08-02T03:37:32;2.40;;;1.53;;
18702;SDS011;9481;48.796;9.210;2022-08-02T03:40:01;2.80;;;1.90;;
18702;SDS011;9481;48.796;9.210;2022-08-02T03:42:30;1.73;;;1.63;;
18702;SDS011;9481;48.796;9.210;2022-08-02T03:44:56;1.90;;;1.70;;
18702;SDS011;9481;48.796;9.210;2022-08-02T03:47:25;2.03;;;1.50;;
18702;SDS011;9481;48.796;9.210;2022-08-02T03:49:52;1.60;;;1.50;;
18702;SDS011;9481;48.796;9.210;2022-08-02T03:52:19;3.23;;;1.80;;
18702;SDS011;9481;48.796;9.210;2022-08-02T03:54:45;1.50;;;1.40;;
18702;SDS011;9481;48.796;9.210;2022-08-02T03:57:11;2.73;;;1.47;;
18702;SDS011;9481;48.796;9.210;2022-08-02T03:59:40;2.03;;;1.63;;
18702;SDS011;9481;48.796;9.210;2022-08-02T04:02:09;1.77;;;1.50;;
18702;SDS011;9481;48.796;9.210;2022-08-02T04:04:35;3.03;;;1.43;;
18702;SDS011;9481;48.796;9.210;2022-08-02T04:07:01;1.70;;;1.50;;
18702;SDS011;9481;48.796;9.210;2022-08-02T04:09:27;2.23;;;1.70;;
18702;SDS011;9481;48.796;9.210;2022-08-02T04:11:53;1.70;;;1.60;;
18702;SDS011;9481;48.796;9.210;2022-08-02T04:14:19;3.57;;;1.83;;
18702;SDS011;9481;48.796;9.210;2022-08-02T04:16:47;1.63;;;1.53;;
18702;SDS011;9481;48.796;9.210;2022-08-02T04:22:28;1.60;;;1.50;;
18702;SDS011;9481;48.796;9.210;2022-08-02T04:25:03;3.60;;;1.60;;
18702;SDS011;9481;48.796;9.210;2022-08-02T04:27:33;2.03;;;1.83;;
18702;SDS011;9481;48.796;9.210;2022-08-02T04:30:02;4.23;;;1.50;;
18702;SDS011;9481;48.796;9.210;2022-08-02T04:32:30;1.57;;;1.37;;
18702;SDS011;9481;48.796;9.210;2022-08-02T04:34:57;3.37;;;2.03;;
18702;SDS011;9481;48.796;9.210;2022-08-02T04:37:22;1.80;;;1.70;;
18702;SDS011;9481;48.796;9.210;2022-08-02T04:39:50;1.73;;;1.60;;
18702;SDS011;9481;48.796;9.210;2022-08-02T04:42:20;1.60;;;1.50;;
18702;SDS011;9481;48.796;9.210;2022-08-02T04:44:47;1.70;;;1.60;;
18702;SDS011;9481;48.796;9.210;2022-08-02T04:47:14;1.50;;;1.40;;
18702;SDS011;9481;48.796;9.210;2022-08-02T04:49:40;7.03;;;1.70;;
18702;SDS011;9481;48.796;9.210;2022-08-02T04:52:05;2.30;;;1.80;;
18702;SDS011;9481;48.796;9.210;2022-08-02T04:54:31;1.50;;;1.40;;
18702;SDS011;9481;48.796;9.210;2022-08-02T04:56:57;2.33;;;1.37;;
18702;SDS011;9481;48.796;9.210;2022-08-02T04:59:22;2.83;;;1.40;;
18702;SDS011;9481;48.796;9.210;2022-08-02T05:01:48;2.27;;;1.60;;
18702;SDS011;9481;48.796;9.210;2022-08-02T05:04:14;1.60;;;1.50;;
18702;SDS011;9481;48.796;9.210;2022-08-02T05:06:39;2.53;;;1.40;;
18702;SDS011;9481;48.796;9.210;2022-08-02T05:09:05;1.60;;;1.40;;
18702;SDS011;9481;48.796;9.210;2022-08-02T05:11:31;2.00;;;1.80;;
18702;SDS011;9481;48.796;9.210;2022-08-02T05:13:57;1.83;;;1.60;;
18702;SDS011;9481;48.796;9.210;2022-08-02T05:16:22;1.73;;;1.50;;
18702;SDS011;9481;48.796;9.210;2022-08-02T05:18:50;3.77;;;1.90;;
18702;SDS011;9481;48.796;9.210;2022-08-02T05:21:16;4.33;;;1.53;;
18702;SDS011;9481;48.796;9.210;2022-08-02T05:23:42;2.70;;;1.63;;
18702;SDS011;9481;48.796;9.210;2022-08-02T05:26:08;1.77;;;1.67;;
18702;SDS011;9481;48.796;9.210;2022-08-02T05:28:33;2.57;;;1.80;;
18702;SDS011;9481;48.796;9.210;2022-08-02T05:30:59;1.80;;;1.70;;
18702;SDS011;9481;48.796;9.210;2022-08-02T05:33:25;4.87;;;1.97;;
18702;SDS011;9481;48.796;9.210;2022-08-02T05:35:51;2.00;;;1.80;;
18702;SDS011;9481;48.796;9.210;2022-08-02T05:38:16;4.70;;;1.60;;
18702;SDS011;9481;48.796;9.210;2022-08-02T05:40:42;1.73;;;1.63;;
18702;SDS011;9481;48.796;9.210;2022-08-02T05:43:11;2.10;;;1.60;;
18702;SDS011;9481;48.796;9.210;2022-08-02T05:45:39;1.90;;;1.70;;
18702;SDS011;9481;48.796;9.210;2022-08-02T05:48:05;1.80;;;1.50;;
18702;SDS011;9481;48.796;9.210;2022-08-02T05:50:32;1.93;;;1.73;;
18702;SDS011;9481;48.796;9.210;2022-08-02T05:53:04;3.67;;;1.77;;
18702;SDS011;9481;48.796;9.210;2022-08-02T05:56:08;1.77;;;1.60;;
18702;SDS011;9481;48.796;9.210;2022-08-02T05:59:01;2.03;;;1.80;;
18702;SDS011;9481;48.796;9.210;2022-08-02T06:01:56;2.13;;;1.87;;
18702;SDS011;9481;48.796;9.210;2022-08-02T06:04:32;2.60;;;1.77;;
18702;SDS011;9481;48.796;9.210;2022-08-02T06:07:10;3.27;;;2.03;;
18702;SDS011;9481;48.796;9.210;2022-08-02T06:09:37;2.40;;;1.93;;
18702;SDS011;9481;48.796;9.210;2022-08-02T06:12:04;3.47;;;2.10;;
18702;SDS011;9481;48.796;9.210;2022-08-02T06:14:35;2.53;;;1.97;;
18702;SDS011;9481;48.796;9.210;2022-08-02T06:17:04;5.73;;;1.90;;
18702;SDS011;9481;48.796;9.210;2022-08-02T06:19:31;3.33;;;2.03;;
18702;SDS011;9481;48.796;9.210;2022-08-02T06:21:57;3.70;;;2.03;;
18702;SDS011;9481;48.796;9.210;2022-08-02T06:24:39;3.10;;;2.13;;
18702;SDS011;9481;48.796;9.210;2022-08-02T06:27:13;2.87;;;2.60;;
18702;SDS011;9481;48.796;9.210;2022-08-02T06:29:39;6.30;;;2.70;;
18702;SDS011;9481;48.796;9.210;2022-08-02T06:32:08;3.20;;;2.33;;
18702;SDS011;9481;48.796;9.210;2022-08-02T06:34:35;7.37;;;2.47;;
18702;SDS011;9481;48.796;9.210;2022-08-02T06:37:08;4.67;;;2.40;;
18702;SDS011;9481;48.796;9.210;2022-08-02T06:39:50;2.83;;;2.33;;
18702;SDS011;9481;48.796;9.210;2022-08-02T06:45:39;1.90;;;1.70;;
18702;SDS011;9481;48.796;9.210;2022-08-02T06:48:05;4.10;;;2.53;;
18702;SDS011;9481;48.796;9.210;2022-08-02T06:50:32;4.33;;;2.70;;
18702;SDS011;9481;48.796;9.210;2022-08-02T06:52:59;3.50;;;2.53;;
18702;SDS011;9481;48.796;9.210;2022-08-02T06:55:25;2.50;;;2.30;;
18702;SDS011;9481;48.796;9.210;2022-08-02T06:57:53;5.73;;;2.60;;
18702;SDS011;9481;48.796;9.210;2022-08-02T07:00:19;2.90;;;2.50;;
18702;SDS011;9481;48.796;9.210;2022-08-02T07:02:44;3.43;;;2.50;;
18702;SDS011;9481;48.796;9.210;2022-08-02T07:05:10;2.73;;;2.47;;
18702;SDS011;9481;48.796;9.210;2022-08-02T07:07:36;2.97;;;2.57;;
18702;SDS011;9481;48.796;9.210;2022-08-02T07:10:02;3.00;;;2.53;;
18702;SDS011;9481;48.796;9.210;2022-08-02T07:12:28;2.63;;;2.43;;
18702;SDS011;9481;48.796;9.210;2022-08-02T07:14:56;3.03;;;2.43;;
18702;SDS011;9481;48.796;9.210;2022-08-02T07:17:23;4.73;;;2.70;;
18702;SDS011;9481;48.796;9.210;2022-08-02T07:19:49;3.27;;;2.40;;
18702;SDS011;9481;48.796;9.210;2022-08-02T07:22:15;4.23;;;2.87;;
18702;SDS011;9481;48.796;9.210;2022-08-02T07:24:42;3.83;;;2.50;;
18702;SDS011;9481;48.796;9.210;2022-08-02T07:27:08;4.80;;;2.93;;
18702;SDS011;9481;48.796;9.210;2022-08-02T07:29:33;3.57;;;2.63;;
18702;SDS011;9481;48.796;9.210;2022-08-02T07:31:59;3.27;;;2.73;;
18702;SDS011;9481;48.796;9.210;2022-08-02T07:34:25;3.07;;;2.17;;
18702;SDS011;9481;48.796;9.210;2022-08-02T07:36:51;3.00;;;2.80;;
18702;SDS011;9481;48.796;9.210;2022-08-02T07:39:16;2.43;;;2.23;;
18702;SDS011;9481;48.796;9.210;2022-08-02T07:41:42;4.20;;;2.77;;
18702;SDS011;9481;48.796;9.210;2022-08-02T07:44:09;4.80;;;2.93;;
18702;SDS011;9481;48.796;9.210;2022-08-02T07:46:34;2.53;;;2.27;;
18702;SDS011;9481;48.796;9.210;2022-08-02T07:49:00;4.33;;;2.57;;
18702;SDS011;9481;48.796;9.210;2022-08-02T07:51:25;3.50;;;2.60;;
18702;SDS011;9481;48.796;9.210;2022-08-02T07:53:51;3.37;;;2.60;;
18702;SDS011;9481;48.796;9.210;2022-08-02T07:56:17;5.87;;;2.67;;
18702;SDS011;9481;48.796;9.210;2022-08-02T07:58:42;3.53;;;2.80;;
18702;SDS011;9481;48.796;9.210;2022-08-02T08:01:08;3.70;;;2.60;;
18702;SDS011;9481;48.796;9.210;2022-08-02T08:03:34;3.60;;;3.17;;
18702;SDS011;9481;48.796;9.210;2022-08-02T08:06:00;3.97;;;3.00;;
18702;SDS011;9481;48.796;9.210;2022-08-02T08:08:26;3.57;;;2.97;;
18702;SDS011;9481;48.796;9.210;2022-08-02T08:10:52;3.67;;;3.03;;
18702;SDS011;9481;48.796;9.210;2022-08-02T08:13:17;3.70;;;2.60;;
18702;SDS011;9481;48.796;9.210;2022-08-02T08:15:43;3.00;;;2.70;;
18702;SDS011;9481;48.796;9.210;2022-08-02T08:18:09;5.60;;;2.80;;
18702;SDS011;9481;48.796;9.210;2022-08-02T08:20:36;3.57;;;2.67;;
18702;SDS011;9481;48.796;9.210;2022-08-02T08:23:01;3.70;;;2.63;;
18702;SDS011;9481;48.796;9.210;2022-08-02T08:25:27;7.50;;;3.00;;
18702;SDS011;9481;48.796;9.210;2022-08-02T08:27:53;5.70;;;2.60;;
18702;SDS011;9481;48.796;9.210;2022-08-02T08:30:19;3.30;;;3.00;;
18702;SDS011;9481;48.796;9.210;2022-08-02T08:32:46;4.87;;;2.73;;
18702;SDS011;9481;48.796;9.210;2022-08-02T08:35:12;4.30;;;2.40;;
18702;SDS011;9481;48.796;9.210;2022-08-02T08:37:39;2.70;;;2.47;;
18702;SDS011;9481;48.796;9.210;2022-08-02T08:40:05;4.13;;;2.97;;
18702;SDS011;9481;48.796;9.210;2022-08-02T08:42:34;3.83;;;3.00;;
18702;SDS011;9481;48.796;9.210;2022-08-02T08:45:02;3.30;;;2.60;;
18702;SDS011;9481;48.796;9.210;2022-08-02T08:47:33;3.17;;;2.87;;
18702;SDS011;9481;48.796;9.210;2022-08-02T08:50:06;3.60;;;2.60;;
18702;SDS011;9481;48.796;9.210;2022-08-02T08:52:50;3.00;;;2.67;;
18702;SDS011;9481;48.796;9.210;2022-08-02T08:55:25;5.20;;;2.67;;
18702;SDS011;9481;48.796;9.210;2022-08-02T08:57:53;3.40;;;3.10;;
18702;SDS011;9481;48.796;9.210;2022-08-02T09:00:22;3.47;;;2.93;;
18702;SDS011;9481;48.796;9.210;2022-08-02T09:02:48;4.47;;;3.10;;
18702;SDS011;9481;48.796;9.210;2022-08-02T09:05:14;3.90;;;2.90;;
18702;SDS011;9481;48.796;9.210;2022-08-02T09:07:42;4.37;;;2.87;;
18702;SDS011;9481;48.796;9.210;2022-08-02T09:13:07;4.57;;;3.20;;
18702;SDS011;9481;48.796;9.210;2022-08-02T09:15:38;4.47;;;3.03;;
18702;SDS011;9481;48.796;9.210;2022-08-02T09:18:06;3.57;;;3.00;;
18702;SDS011;9481;48.796;9.210;2022-08-02T09:20:33;3.90;;;2.90;;
18702;SDS011;9481;48.796;9.210;2022-08-02T09:23:16;4.97;;;3.50;;
18702;SDS011;9481;48.796;9.210;2022-08-02T09:25:44;5.07;;;3.07;;
18702;SDS011;9481;48.796;9.210;2022-08-02T09:28:47;5.00;;;2.73;;
18702;SDS011;9481;48.796;9.210;2022-08-02T09:31:19;3.70;;;3.30;;
18702;SDS011;9481;48.796;9.210;2022-08-02T09:33:51;4.87;;;3.20;;
18702;SDS011;9481;48.796;9.210;2022-08-02T09:36:22;3.60;;;3.30;;
18702;SDS011;9481;48.796;9.210;2022-08-02T09:38:54;4.10;;;3.40;;
18702;SDS011;9481;48.796;9.210;2022-08-02T09:41:25;3.47;;;3.13;;
18702;SDS011;9481;48.796;9.210;2022-08-02T09:43:54;3.83;;;3.03;;
18702;SDS011;9481;48.796;9.210;2022-08-02T09:46:23;3.37;;;3.07;;
18702;SDS011;9481;48.796;9.210;2022-08-02T09:49:16;3.77;;;2.70;;
18702;SDS011;9481;48.796;9.210;2022-08-02T09:54:14;3.93;;;3.63;;
18702;SDS011;9481;48.796;9.210;2022-08-02T09:57:00;4.00;;;3.60;;
18702;SDS011;9481;48.796;9.210;2022-08-02T09:59:26;3.53;;;3.23;;
18702;SDS011;9481;48.796;9.210;2022-08-02T10:01:54;4.73;;;3.30;;
18702;SDS011;9481;48.796;9.210;2022-08-02T10:04:23;4.13;;;2.60;;
18702;SDS011;9481;48.796;9.210;2022-08-02T10:06:52;3.40;;;3.10;;
18702;SDS011;9481;48.796;9.210;2022-08-02T10:09:18;4.10;;;2.60;;
18702;SDS011;9481;48.796;9.210;2022-08-02T10:11:46;3.40;;;3.10;;
18702;SDS011;9481;48.796;9.210;2022-08-02T10:14:12;2.80;;;2.57;;
18702;SDS011;9481;48.796;9.210;2022-08-02T10:16:39;2.90;;;2.60;;
18702;SDS011;9481;48.796;9.210;2022-08-02T10:19:07;3.73;;;3.00;;
18702;SDS011;9481;48.796;9.210;2022-08-02T10:21:44;2.70;;;2.50;;
18702;SDS011;9481;48.796;9.210;2022-08-02T10:24:22;4.27;;;2.80;;
18702;SDS011;9481;48.796;9.210;2022-08-02T10:26:52;3.93;;;3.00;;
18702;SDS011;9481;48.796;9.210;2022-08-02T10:29:19;3.60;;;3.30;;
18702;SDS011;9481;48.796;9.210;2022-08-02T10:31:57;3.20;;;2.70;;
18702;SDS011;9481;48.796;9.210;2022-08-02T10:34:44;3.50;;;2.90;;
18702;SDS011;9481;48.796;9.210;2022-08-02T10:37:17;3.20;;;2.60;;
18702;SDS011;9481;48.796;9.210;2022-08-02T10:39:45;2.87;;;2.67;;
18702;SDS011;9481;48.796;9.210;2022-08-02T10:42:11;3.20;;;2.90;;
18702;SDS011;9481;48.796;9.210;2022-08-02T10:45:09;2.97;;;2.63;;
18702;SDS011;9481;48.796;9.210;2022-08-02T10:47:39;2.83;;;2.50;;
18702;SDS011;9481;48.796;9.210;2022-08-02T10:55:44;4.87;;;3.10;;
18702;SDS011;9481;48.796;9.210;2022-08-02T10:58:17;3.73;;;2.60;;
18702;SDS011;9481;48.796;9.210;2022-08-02T11:00:45;4.87;;;3.37;;
18702;SDS011;9481;48.796;9.210;2022-08-02T11:03:34;4.77;;;3.30;;
18702;SDS011;9481;48.796;9.210;2022-08-02T11:06:04;3.77;;;3.37;;
18702;SDS011;9481;48.796;9.210;2022-08-02T11:08:37;5.13;;;3.50;;
18702;SDS011;9481;48.796;9.210;2022-08-02T11:14:02;3.77;;;3.37;;
18702;SDS011;9481;48.796;9.210;2022-08-02T11:17:33;3.63;;;2.43;;
18702;SDS011;9481;48.796;9.210;2022-08-02T11:19:29;5.30;;;2.87;;
18702;SDS011;9481;48.796;9.210;2022-08-02T11:21:59;3.63;;;3.00;;
18702;SDS011;9481;48.796;9.210;2022-08-02T11:24:29;3.87;;;2.93;;
18702;SDS011;9481;48.796;9.210;2022-08-02T11:27:01;3.30;;;3.00;;
18702;SDS011;9481;48.796;9.210;2022-08-02T11:29:32;2.77;;;2.50;;
18702;SDS011;9481;48.796;9.210;2022-08-02T11:32:01;3.23;;;2.93;;
18702;SDS011;9481;48.796;9.210;2022-08-02T11:34:28;3.10;;;2.90;;
18702;SDS011;9481;48.796;9.210;2022-08-02T11:36:57;3.13;;;2.73;;
18702;SDS011;9481;48.796;9.210;2022-08-02T11:39:23;5.33;;;2.73;;
18702;SDS011;9481;48.796;9.210;2022-08-02T11:41:50;4.20;;;2.37;;
18702;SDS011;9481;48.796;9.210;2022-08-02T11:44:22;3.23;;;2.60;;
18702;SDS011;9481;48.796;9.210;2022-08-02T11:46:57;3.50;;;3.20;;
18702;SDS011;9481;48.796;9.210;2022-08-02T11:49:25;3.27;;;2.77;;
18702;SDS011;9481;48.796;9.210;2022-08-02T11:52:06;3.13;;;2.83;;
18702;SDS011;9481;48.796;9.210;2022-08-02T11:54:36;4.90;;;2.97;;
18702;SDS011;9481;48.796;9.210;2022-08-02T11:57:19;3.47;;;2.57;;
18702;SDS011;9481;48.796;9.210;2022-08-02T11:59:53;2.77;;;2.57;;
18702;SDS011;9481;48.796;9.210;2022-08-02T12:02:22;2.97;;;2.77;;
18702;SDS011;9481;48.796;9.210;2022-08-02T12:04:55;2.67;;;2.47;;
18702;SDS011;9481;48.796;9.210;2022-08-02T12:07:28;2.63;;;2.23;;
18702;SDS011;9481;48.796;9.210;2022-08-02T12:10:00;3.13;;;2.67;;
18702;SDS011;9481;48.796;9.210;2022-08-02T12:15:36;2.80;;;2.53;;
18702;SDS011;9481;48.796;9.210;2022-08-02T12:18:09;5.97;;;2.83;;
18702;SDS011;9481;48.796;9.210;2022-08-02T12:20:59;3.23;;;2.87;;
18702;SDS011;9481;48.796;9.210;2022-08-02T12:23:26;3.00;;;2.80;;
18702;SDS011;9481;48.796;9.210;2022-08-02T12:26:25;2.90;;;2.70;;
18702;SDS011;9481;48.796;9.210;2022-08-02T12:28:43;2.83;;;2.60;;
18702;SDS011;9481;48.796;9.210;2022-08-02T12:31:10;3.23;;;2.93;;
18702;SDS011;9481;48.796;9.210;2022-08-02T12:33:45;3.27;;;2.60;;
18702;SDS011;9481;48.796;9.210;2022-08-02T12:36:17;2.97;;;2.77;;
18702;SDS011;9481;48.796;9.210;2022-08-02T12:38:57;3.40;;;2.60;;
18702;SDS011;9481;48.796;9.210;2022-08-02T12:41:25;2.40;;;2.20;;
18702;SDS011;9481;48.796;9.210;2022-08-02T12:43:54;2.87;;;2.67;;
18702;SDS011;9481;48.796;9.210;2022-08-02T12:46:21;3.40;;;2.67;;
18702;SDS011;9481;48.796;9.210;2022-08-02T12:48:48;3.90;;;2.50;;
18702;SDS011;9481;48.796;9.210;2022-08-02T12:53:49;2.23;;;2.07;;
18702;SDS011;9481;48.796;9.210;2022-08-02T12:56:29;3.17;;;2.50;;
18702;SDS011;9481;48.796;9.210;2022-08-02T12:59:02;3.07;;;2.33;;
18702;SDS011;9481;48.796;9.210;2022-08-02T13:01:29;2.47;;;2.27;;
18702;SDS011;9481;48.796;9.210;2022-08-02T13:03:56;3.33;;;2.60;;
18702;SDS011;9481;48.796;9.210;2022-08-02T13:06:22;3.37;;;2.47;;
18702;SDS011;9481;48.796;9.210;2022-08-02T13:08:49;3.40;;;2.30;;
18702;SDS011;9481;48.796;9.210;2022-08-02T13:11:17;2.70;;;2.50;;
18702;SDS011;9481;48.796;9.210;2022-08-02T13:13:43;2.63;;;2.43;;
18702;SDS011;9481;48.796;9.210;2022-08-02T13:16:09;2.47;;;2.27;;
18702;SDS011;9481;48.796;9.210;2022-08-02T13:18:35;2.70;;;2.50;;
18702;SDS011;9481;48.796;9.210;2022-08-02T13:21:02;3.57;;;2.43;;
18702;SDS011;9481;48.796;9.210;2022-08-02T13:23:30;2.53;;;2.33;;
18702;SDS011;9481;48.796;9.210;2022-08-02T13:25:57;2.63;;;2.30;;
18702;SDS011;9481;48.796;9.210;2022-08-02T13:28:22;2.30;;;2.10;;
18702;SDS011;9481;48.796;9.210;2022-08-02T13:30:48;3.60;;;2.60;;
18702;SDS011;9481;48.796;9.210;2022-08-02T13:33:14;2.43;;;2.23;;
18702;SDS011;9481;48.796;9.210;2022-08-02T13:35:41;3.50;;;2.87;;
18702;SDS011;9481;48.796;9.210;2022-08-02T13:38:08;2.83;;;2.50;;
18702;SDS011;9481;48.796;9.210;2022-08-02T13:40:34;2.77;;;2.20;;
18702;SDS011;9481;48.796;9.210;2022-08-02T13:43:20;2.70;;;2.27;;
18702;SDS011;9481;48.796;9.210;2022-08-02T13:45:45;2.80;;;2.60;;
18702;SDS011;9481;48.796;9.210;2022-08-02T13:48:11;3.00;;;2.47;;
18702;SDS011;9481;48.796;9.210;2022-08-02T13:50:37;2.47;;;2.27;;
18702;SDS011;9481;48.796;9.210;2022-08-02T13:53:03;2.60;;;2.40;;
18702;SDS011;9481;48.796;9.210;2022-08-02T13:55:28;2.70;;;2.50;;
18702;SDS011;9481;48.796;9.210;2022-08-02T13:57:55;4.90;;;2.50;;
18702;SDS011;9481;48.796;9.210;2022-08-02T14:00:21;3.07;;;2.27;;
18702;SDS011;9481;48.796;9.210;2022-08-02T14:02:47;4.80;;;2.50;;
18702;SDS011;9481;48.796;9.210;2022-08-02T14:05:13;3.00;;;2.70;;
18702;SDS011;9481;48.796;9.210;2022-08-02T14:07:38;2.70;;;2.50;;
18702;SDS011;9481;48.796;9.210;2022-08-02T14:10:04;2.47;;;2.23;;
18702;SDS011;9481;48.796;9.210;2022-08-02T14:12:31;2.97;;;2.50;;
18702;SDS011;9481;48.796;9.210;2022-08-02T14:14:56;3.10;;;2.27;;
18702;SDS011;9481;48.796;9.210;2022-08-02T14:17:22;2.33;;;2.13;;
18702;SDS011;9481;48.796;9.210;2022-08-02T14:19:48;2.97;;;2.30;;
18702;SDS011;9481;48.796;9.210;2022-08-02T14:22:14;2.53;;;2.33;;
18702;SDS011;9481;48.796;9.210;2022-08-02T14:24:40;2.47;;;2.20;;
18702;SDS011;9481;48.796;9.210;2022-08-02T14:27:07;3.43;;;2.37;;
18702;SDS011;9481;48.796;9.210;2022-08-02T14:29:33;2.57;;;2.37;;
18702;SDS011;9481;48.796;9.210;2022-08-02T14:31:59;2.60;;;2.40;;
18702;SDS011;9481;48.796;9.210;2022-08-02T14:34:25;3.30;;;2.37;;
18702;SDS011;9481;48.796;9.210;2022-08-02T14:36:51;3.30;;;2.53;;
18702;SDS011;9481;48.796;9.210;2022-08-02T14:39:16;3.20;;;2.47;;
18702;SDS011;9481;48.796;9.210;2022-08-02T14:41:42;2.47;;;2.30;;
18702;SDS011;9481;48.796;9.210;2022-08-02T14:44:08;3.43;;;2.50;;
18702;SDS011;9481;48.796;9.210;2022-08-02T14:46:35;5.50;;;2.40;;
18702;SDS011;9481;48.796;9.210;2022-08-02T14:49:05;2.53;;;2.20;;
18702;SDS011;9481;48.796;9.210;2022-08-02T14:51:34;2.80;;;2.13;;
18702;SDS011;9481;48.796;9.210;2022-08-02T14:54:02;2.50;;;2.20;;
18702;SDS011;9481;48.796;9.210;2022-08-02T14:56:30;2.27;;;2.07;;
18702;SDS011;9481;48.796;9.210;2022-08-02T14:58:57;2.60;;;2.40;;
18702;SDS011;9481;48.796;9.210;2022-08-02T15:01:22;2.73;;;2.23;;
18702;SDS011;9481;48.796;9.210;2022-08-02T15:03:49;2.33;;;2.13;;
18702;SDS011;9481;48.796;9.210;2022-08-02T15:06:14;2.30;;;2.20;;
18702;SDS011;9481;48.796;9.210;2022-08-02T15:08:40;3.10;;;2.80;;
18702;SDS011;9481;48.796;9.210;2022-08-02T15:11:06;2.57;;;2.37;;
18702;SDS011;9481;48.796;9.210;2022-08-02T15:13:32;3.10;;;2.20;;
18702;SDS011;9481;48.796;9.210;2022-08-02T15:15:58;3.80;;;2.30;;
18702;SDS011;9481;48.796;9.210;2022-08-02T15:18:23;3.83;;;2.37;;
18702;SDS011;9481;48.796;9.210;2022-08-02T15:20:49;2.23;;;2.03;;
18702;SDS011;9481;48.796;9.210;2022-08-02T15:23:15;2.50;;;2.00;;
18702;SDS011;9481;48.796;9.210;2022-08-02T15:25:41;2.30;;;2.10;;
18702;SDS011;9481;48.796;9.210;2022-08-02T15:28:07;2.10;;;1.90;;
18702;SDS011;9481;48.796;9.210;2022-08-02T15:30:34;2.33;;;2.13;;
18702;SDS011;9481;48.796;9.210;2022-08-02T15:33:01;2.00;;;1.90;;
18702;SDS011;9481;48.796;9.210;2022-08-02T15:35:28;2.20;;;2.00;;
18702;SDS011;9481;48.796;9.210;2022-08-02T15:37:54;1.90;;;1.80;;
18702;SDS011;9481;48.796;9.210;2022-08-02T15:40:20;3.07;;;2.03;;
18702;SDS011;9481;48.796;9.210;2022-08-02T15:42:47;2.07;;;1.90;;
18702;SDS011;9481;48.796;9.210;2022-08-02T15:45:13;2.93;;;1.80;;
18702;SDS011;9481;48.796;9.210;2022-08-02T15:47:38;2.03;;;1.93;;
18702;SDS011;9481;48.796;9.210;2022-08-02T15:50:04;2.90;;;2.00;;
18702;SDS011;9481;48.796;9.210;2022-08-02T15:52:30;2.20;;;2.00;;
18702;SDS011;9481;48.796;9.210;2022-08-02T15:54:56;4.00;;;1.90;;
18702;SDS011;9481;48.796;9.210;2022-08-02T15:57:22;2.13;;;2.00;;